Time;durP1;ratioP1;P1;durP2;ratioP2;P2;SDS_P1;SDS_P2;PMS_P1;PMS_P2;Temp;Humidity;BMP_temperature;BMP_pressure;BME280_temperature;BME280_humidity;BME280_pressure;Samples;Min_cycle;Max_cycle;Signal;HPM_P1;HPM_P2
2021/12/22 00:01:56;;;;;;;18.23;14.43;;;-2.40;99.90;;;;;;6284463;22;20157;-52
2021/12/22 00:04:24;;;;;;;21.23;14.93;;;-2.10;99.90;;;;;;6272159;22;20182;-51
2021/12/22 00:06:50;;;;;;;17.92;13.35;;;-2.10;99.90;;;;;;6284208;22;20149;-52
2021/12/22 00:09:16;;;;;;;15.60;12.83;;;-2.10;99.90;;;;;;6284590;22;20163;-52
2021/12/22 00:11:43;;;;;;;17.13;12.43;;;-2.50;99.90;;;;;;6283898;22;20388;-52
2021/12/22 00:14:09;;;;;;;17.67;13.73;;;-2.10;99.90;;;;;;6284736;22;20411;-52
2021/12/22 00:16:35;;;;;;;18.83;13.75;;;-2.20;99.90;;;;;;6273905;22;20504;-52
2021/12/22 00:19:00;;;;;;;17.37;12.23;;;-2.10;99.90;;;;;;6283712;22;20651;-51
2021/12/22 00:21:26;;;;;;;20.47;14.80;;;-2.30;99.90;;;;;;6273786;22;20166;-52
2021/12/22 00:23:51;;;;;;;17.60;12.87;;;-2.40;99.90;;;;;;6274098;22;20556;-53
2021/12/22 00:26:17;;;;;;;17.30;12.67;;;-2.40;99.90;;;;;;6283764;22;20188;-52
2021/12/22 00:28:44;;;;;;;17.70;13.40;;;-2.10;99.90;;;;;;6284047;22;20148;-52
2021/12/22 00:31:13;;;;;;;17.45;11.52;;;-2.40;99.90;;;;;;6284377;22;20616;-52
2021/12/22 00:33:47;;;;;;;19.58;13.27;;;-2.40;99.90;;;;;;6284312;22;20248;-52
2021/12/22 00:36:14;;;;;;;17.67;13.45;;;-2.50;99.90;;;;;;6271578;22;20156;-53
2021/12/22 00:38:40;;;;;;;14.48;12.60;;;-2.20;99.90;;;;;;6283369;22;20626;-53
2021/12/22 00:41:06;;;;;;;18.70;13.73;;;-2.20;99.90;;;;;;6272811;22;20162;-53
2021/12/22 00:43:31;;;;;;;14.88;12.73;;;-2.40;99.90;;;;;;6284049;22;20173;-51
2021/12/22 00:45:57;;;;;;;15.87;11.73;;;-2.30;99.90;;;;;;6273628;22;20198;-52
2021/12/22 00:48:23;;;;;;;19.40;13.00;;;-2.10;99.90;;;;;;6283707;22;20149;-53
2021/12/22 00:50:49;;;;;;;18.13;12.73;;;-2.40;99.90;;;;;;6283669;22;20161;-52
2021/12/22 00:53:15;;;;;;;19.08;13.52;;;-2.80;99.90;;;;;;6283566;22;20219;-52
2021/12/22 00:55:41;;;;;;;14.50;11.90;;;-2.40;99.90;;;;;;6273497;22;20157;-52
2021/12/22 00:58:06;;;;;;;22.10;12.97;;;-2.60;99.90;;;;;;6282504;22;20148;-52
2021/12/22 01:00:32;;;;;;;17.80;13.17;;;-2.50;99.90;;;;;;6273209;22;20394;-51
2021/12/22 01:02:58;;;;;;;16.35;12.88;;;-2.50;99.90;;;;;;6284111;22;20231;-52
2021/12/22 01:05:25;;;;;;;15.30;12.40;;;-2.30;99.90;;;;;;6271845;22;20204;-52
2021/12/22 01:07:51;;;;;;;17.20;12.52;;;-2.70;99.90;;;;;;6283405;22;20144;-52
2021/12/22 01:10:29;;;;;;;19.63;13.33;;;-3.20;99.90;;;;;;6273745;22;20813;-52
2021/12/22 01:12:58;;;;;;;17.95;13.35;;;-2.70;99.90;;;;;;6283745;22;20805;-52
2021/12/22 01:15:24;;;;;;;16.40;12.52;;;-2.80;99.90;;;;;;6272131;22;20610;-52
2021/12/22 01:17:58;;;;;;;16.65;12.27;;;-2.70;99.90;;;;;;6283513;22;20156;-51
2021/12/22 01:20:30;;;;;;;19.77;13.15;;;-2.70;99.90;;;;;;6283035;22;20183;-51
2021/12/22 01:23:06;;;;;;;18.85;13.32;;;-2.70;99.90;;;;;;6283956;22;20156;-51
2021/12/22 01:25:37;;;;;;;16.92;11.52;;;-2.40;99.90;;;;;;6283910;22;20202;-52
2021/12/22 01:28:03;;;;;;;21.40;12.02;;;-2.70;99.90;;;;;;6283627;22;20125;-52
2021/12/22 01:30:31;;;;;;;16.23;13.25;;;-2.70;99.90;;;;;;6284069;22;20141;-52
2021/12/22 01:32:59;;;;;;;17.38;12.80;;;-2.60;99.90;;;;;;6283339;22;20149;-52
2021/12/22 01:35:28;;;;;;;19.25;12.18;;;-2.60;99.90;;;;;;6276564;22;20203;-86
2021/12/22 01:37:53;;;;;;;17.88;13.13;;;-3.20;99.90;;;;;;6244765;22;20153;-86
2021/12/22 01:40:20;;;;;;;17.37;12.30;;;-3.40;99.90;;;;;;6247350;22;20207;-86
2021/12/22 01:42:46;;;;;;;18.95;12.95;;;-2.50;99.90;;;;;;6247458;22;20488;-87
2021/12/22 01:50:41;;;;;;;16.10;12.18;;;-2.00;99.90;;;;;;6284968;22;20217;-86
2021/12/22 01:53:31;;;;;;;16.73;12.95;;;-2.70;99.90;;;;;;6248000;22;20148;-86
2021/12/22 01:56:24;;;;;;;18.23;12.30;;;-2.90;99.90;;;;;;6247522;22;20148;-87
2021/12/22 01:58:58;;;;;;;14.68;12.20;;;-3.20;99.90;;;;;;6247117;22;20149;-87
2021/12/22 02:01:25;;;;;;;16.58;12.35;;;-2.70;99.90;;;;;;6244707;22;20184;-87
2021/12/22 02:03:51;;;;;;;16.70;11.82;;;-3.20;99.90;;;;;;6248120;22;20157;-87
2021/12/22 02:06:18;;;;;;;16.73;12.55;;;-2.30;99.90;;;;;;6247280;22;20204;-86
2021/12/22 02:08:44;;;;;;;15.93;11.52;;;-2.80;99.90;;;;;;6247180;22;20165;-87
2021/12/22 02:11:12;;;;;;;15.60;11.32;;;-3.00;99.90;;;;;;6247200;22;20271;-86
2021/12/22 02:13:42;;;;;;;16.98;11.82;;;-2.50;99.90;;;;;;6247895;22;20156;-87
2021/12/22 02:16:12;;;;;;;15.68;12.07;;;-3.30;99.90;;;;;;6246945;22;20258;-86
2021/12/22 02:18:43;;;;;;;18.58;13.18;;;-2.50;99.90;;;;;;6246745;22;20165;-88
2021/12/22 02:21:09;;;;;;;13.45;11.45;;;-2.70;99.90;;;;;;6246585;22;20204;-87
2021/12/22 02:23:35;;;;;;;17.60;11.93;;;-2.80;99.90;;;;;;6247768;22;20157;-88
2021/12/22 02:26:10;;;;;;;19.80;13.50;;;-2.40;99.90;;;;;;6248407;22;20422;-88
2021/12/22 02:28:39;;;;;;;18.55;13.02;;;-2.70;99.90;;;;;;6249407;22;20167;-87
2021/12/22 02:31:04;;;;;;;16.95;12.20;;;-2.70;99.90;;;;;;6249503;22;20207;-87
2021/12/22 02:33:35;;;;;;;19.97;13.80;;;-2.30;99.90;;;;;;6250120;22;20149;-87
2021/12/22 02:38:38;;;;;;;18.27;12.75;;;-2.80;99.90;;;;;;6286115;22;20217;-85
2021/12/22 02:41:07;;;;;;;17.60;13.27;;;-2.60;99.90;;;;;;6248716;22;20635;-86
2021/12/22 02:43:34;;;;;;;17.73;13.02;;;-2.60;99.90;;;;;;6249447;22;20509;-87
2021/12/22 02:46:01;;;;;;;19.08;14.43;;;-2.50;99.90;;;;;;6249198;22;20510;-87
2021/12/22 02:48:32;;;;;;;19.80;13.77;;;-2.60;99.90;;;;;;6249170;22;20153;-88
2021/12/22 02:51:01;;;;;;;19.67;13.85;;;-2.60;99.90;;;;;;6249443;22;20195;-87
2021/12/22 02:53:38;;;;;;;17.38;12.82;;;-2.50;99.90;;;;;;6250608;22;20152;-87
2021/12/22 02:56:33;;;;;;;14.38;12.32;;;-3.00;99.90;;;;;;6251784;22;20195;-87
2021/12/22 03:04:10;;;;;;;20.33;13.70;;;-2.80;99.90;;;;;;6296324;22;20149;-86
2021/12/22 03:06:43;;;;;;;17.60;12.80;;;-2.40;99.90;;;;;;6251936;22;20218;-87
2021/12/22 03:09:21;;;;;;;18.17;11.85;;;-3.40;99.90;;;;;;6251394;22;20631;-87
2021/12/22 03:11:47;;;;;;;17.27;13.30;;;-2.80;99.90;;;;;;6250668;22;20181;-88
2021/12/22 03:14:14;;;;;;;19.58;13.50;;;-2.90;99.90;;;;;;6250420;22;20490;-88
2021/12/22 03:16:43;;;;;;;20.50;12.13;;;-2.80;99.90;;;;;;6250036;22;20167;-87
2021/12/22 03:19:10;;;;;;;20.83;12.63;;;-2.70;99.90;;;;;;6255677;22;20157;-87
2021/12/22 03:21:37;;;;;;;16.90;13.63;;;-2.90;99.90;;;;;;6249731;22;20614;-87
2021/12/22 03:24:03;;;;;;;18.98;13.52;;;-2.70;99.90;;;;;;6249807;22;20184;-87
2021/12/22 03:26:29;;;;;;;20.50;12.90;;;-3.00;99.90;;;;;;6249664;22;20152;-87
2021/12/22 03:28:55;;;;;;;18.25;13.55;;;-2.70;99.90;;;;;;6249701;22;20400;-87
2021/12/22 03:31:21;;;;;;;16.45;13.10;;;-2.70;99.90;;;;;;6249986;22;20180;-87
2021/12/22 03:33:47;;;;;;;19.10;12.38;;;-3.00;99.90;;;;;;6249875;22;20180;-86
2021/12/22 03:36:13;;;;;;;18.20;13.27;;;-2.80;99.90;;;;;;6257677;22;20548;-87
2021/12/22 03:38:38;;;;;;;18.20;13.83;;;-2.80;99.90;;;;;;6249009;22;20399;-87
2021/12/22 03:41:07;;;;;;;19.13;14.30;;;-2.50;99.90;;;;;;6249232;22;20214;-87
2021/12/22 03:43:34;;;;;;;21.88;13.55;;;-2.50;99.90;;;;;;6250210;22;20161;-87
2021/12/22 03:46:00;;;;;;;19.05;13.65;;;-2.20;99.90;;;;;;6249606;22;20216;-86
2021/12/22 03:48:26;;;;;;;18.33;13.07;;;-2.20;99.90;;;;;;6249112;22;20153;-87
2021/12/22 03:50:53;;;;;;;20.38;13.00;;;-3.30;99.90;;;;;;6256152;22;20173;-87
2021/12/22 03:53:19;;;;;;;19.67;13.50;;;-2.90;99.90;;;;;;6249652;22;20247;-87
2021/12/22 03:55:44;;;;;;;17.43;13.50;;;-2.90;99.90;;;;;;6285989;22;20154;-87
2021/12/22 03:58:11;;;;;;;21.10;14.25;;;-2.90;99.90;;;;;;6248175;22;20180;-87
2021/12/22 04:00:38;;;;;;;20.23;13.90;;;-3.10;99.90;;;;;;6248520;22;20227;-88
2021/12/22 04:03:05;;;;;;;20.65;14.63;;;-3.00;99.90;;;;;;6248914;22;20216;-87
2021/12/22 04:05:31;;;;;;;22.15;15.50;;;-2.60;99.90;;;;;;6248029;22;20235;-87
2021/12/22 04:07:57;;;;;;;20.17;13.48;;;-2.80;99.90;;;;;;6248425;22;20152;-86
2021/12/22 04:10:23;;;;;;;18.47;12.73;;;-3.00;99.90;;;;;;6248549;22;20638;-87
2021/12/22 04:12:55;;;;;;;19.42;13.93;;;-2.50;99.90;;;;;;6248107;22;20391;-87
2021/12/22 04:15:23;;;;;;;20.25;13.68;;;-2.80;99.90;;;;;;6248626;22;20145;-87
2021/12/22 04:17:49;;;;;;;19.27;14.32;;;-2.70;99.90;;;;;;6247697;22;20554;-86
2021/12/22 04:20:14;;;;;;;18.10;13.73;;;-2.80;99.90;;;;;;6247335;22;20188;-87
2021/12/22 04:22:40;;;;;;;15.37;12.60;;;-3.40;99.90;;;;;;6248650;22;20395;-87
2021/12/22 04:25:08;;;;;;;24.10;14.50;;;-3.10;99.90;;;;;;6248257;22;20504;-87
2021/12/22 04:27:34;;;;;;;19.80;13.77;;;-3.10;99.90;;;;;;6248195;22;20162;-87
2021/12/22 04:30:01;;;;;;;17.05;13.40;;;-3.00;99.90;;;;;;6248597;22;20234;-88
2021/12/22 04:32:26;;;;;;;18.30;12.65;;;-3.00;99.90;;;;;;6249018;22;20163;-88
2021/12/22 04:34:52;;;;;;;19.13;13.63;;;-3.40;99.90;;;;;;6248216;22;20247;-87
2021/12/22 04:37:18;;;;;;;19.20;14.17;;;-3.10;99.90;;;;;;6247841;22;20182;-88
2021/12/22 04:39:43;;;;;;;18.40;13.17;;;-2.60;99.90;;;;;;6247764;22;20655;-88
2021/12/22 04:42:09;;;;;;;20.27;14.27;;;-2.90;99.90;;;;;;6247791;22;20226;-86
2021/12/22 04:44:34;;;;;;;24.30;14.30;;;-3.00;99.90;;;;;;6248174;22;20184;-86
2021/12/22 04:47:00;;;;;;;20.03;13.17;;;-3.00;99.90;;;;;;6248004;22;20180;-85
2021/12/22 04:49:26;;;;;;;18.10;12.97;;;-3.50;99.90;;;;;;6248404;22;20539;-86
2021/12/22 04:51:54;;;;;;;18.08;12.95;;;-3.50;99.90;;;;;;6247766;22;20263;-87
2021/12/22 04:54:33;;;;;;;18.73;12.82;;;-3.10;99.90;;;;;;6248100;22;20148;-86
2021/12/22 04:56:58;;;;;;;19.35;13.90;;;-2.90;99.90;;;;;;6247147;22;20683;-86
2021/12/22 04:59:25;;;;;;;20.70;15.80;;;-3.10;99.90;;;;;;6247596;22;20153;-86
2021/12/22 05:01:51;;;;;;;18.10;13.27;;;-2.90;99.90;;;;;;6247714;22;20203;-86
2021/12/22 05:04:17;;;;;;;18.83;13.30;;;-3.80;99.90;;;;;;6248102;22;20157;-87
2021/12/22 05:06:43;;;;;;;24.27;15.83;;;-3.70;99.90;;;;;;6249452;22;20156;-87
2021/12/22 05:09:08;;;;;;;19.17;14.13;;;-2.90;99.90;;;;;;6247889;22;20387;-86
2021/12/22 05:11:35;;;;;;;20.70;13.13;;;-2.60;99.90;;;;;;6249565;22;20215;-86
2021/12/22 05:14:03;;;;;;;19.30;14.32;;;-3.00;99.90;;;;;;6254611;22;20159;-87
2021/12/22 05:16:29;;;;;;;18.05;13.32;;;-3.80;99.90;;;;;;6264675;22;20195;-88
2021/12/22 05:19:09;;;;;;;17.00;12.68;;;-3.10;99.90;;;;;;6249322;22;20157;-86
2021/12/22 05:21:35;;;;;;;18.05;13.68;;;-3.10;99.90;;;;;;6247410;22;20181;-86
2021/12/22 05:24:00;;;;;;;17.40;12.50;;;-2.70;99.90;;;;;;6248607;22;20633;-86
2021/12/22 05:26:26;;;;;;;20.13;14.30;;;-2.70;99.90;;;;;;6247333;22;20504;-86
2021/12/22 05:28:54;;;;;;;20.27;14.53;;;-3.20;99.90;;;;;;6248011;22;20179;-86
2021/12/22 05:31:19;;;;;;;19.50;13.73;;;-2.60;99.90;;;;;;6247570;22;20174;-86
2021/12/22 05:33:45;;;;;;;19.60;13.60;;;-2.60;99.90;;;;;;6247902;22;20159;-86
2021/12/22 05:36:10;;;;;;;25.53;15.37;;;-3.40;99.90;;;;;;6246771;22;20439;-86
2021/12/22 05:38:36;;;;;;;21.83;13.70;;;-3.30;99.90;;;;;;6246892;22;20359;-86
2021/12/22 05:41:02;;;;;;;17.50;13.90;;;-2.80;99.90;;;;;;6247563;22;20181;-86
2021/12/22 05:43:27;;;;;;;18.07;14.00;;;-2.90;99.90;;;;;;6248186;22;20167;-85
2021/12/22 05:45:53;;;;;;;21.73;16.13;;;-2.70;99.90;;;;;;6247559;22;20427;-86
2021/12/22 05:48:20;;;;;;;22.33;15.47;;;-2.40;99.90;;;;;;6247343;22;20160;-86
2021/12/22 05:50:49;;;;;;;20.48;15.50;;;-3.00;99.90;;;;;;6247727;22;20182;-86
2021/12/22 05:53:15;;;;;;;20.63;16.27;;;-3.00;99.90;;;;;;6252785;22;20152;-87
2021/12/22 05:55:40;;;;;;;22.40;15.50;;;-2.90;99.90;;;;;;6251386;22;20203;-86
2021/12/22 05:58:06;;;;;;;19.53;14.60;;;-2.90;99.90;;;;;;6247236;22;20168;-87
2021/12/22 06:00:31;;;;;;;18.77;13.47;;;-3.30;99.90;;;;;;6249948;22;20180;-86
2021/12/22 06:02:57;;;;;;;21.10;14.57;;;-3.20;99.90;;;;;;6276885;22;20187;-86
2021/12/22 06:05:23;;;;;;;22.60;13.63;;;-3.60;99.90;;;;;;6249119;22;20180;-85
2021/12/22 06:07:49;;;;;;;18.85;14.43;;;-3.60;99.90;;;;;;6249226;22;20664;-87
2021/12/22 06:10:14;;;;;;;21.20;13.97;;;-3.00;99.90;;;;;;6249537;22;20173;-86
2021/12/22 06:12:40;;;;;;;19.93;14.07;;;-2.60;99.90;;;;;;6248771;22;20180;-86
2021/12/22 06:15:06;;;;;;;18.20;13.53;;;-3.60;99.90;;;;;;6249573;22;20152;-86
2021/12/22 06:17:32;;;;;;;17.30;13.32;;;-3.30;99.90;;;;;;6248981;22;20160;-86
2021/12/22 06:19:57;;;;;;;20.40;14.80;;;-3.20;99.90;;;;;;6248794;22;20515;-86
2021/12/22 06:22:23;;;;;;;20.33;15.53;;;-3.20;99.90;;;;;;6249478;22;20157;-86
2021/12/22 06:24:49;;;;;;;23.73;14.93;;;-3.30;99.90;;;;;;6249397;22;20207;-86
2021/12/22 06:27:14;;;;;;;20.20;14.90;;;-3.60;99.90;;;;;;6248633;22;20606;-86
2021/12/22 06:29:40;;;;;;;24.20;14.77;;;-3.00;99.90;;;;;;6249268;22;20485;-86
2021/12/22 06:32:06;;;;;;;20.20;14.07;;;-3.80;99.90;;;;;;6249044;22;20168;-86
2021/12/22 06:34:32;;;;;;;22.25;14.35;;;-3.30;99.90;;;;;;6249079;22;20153;-86
2021/12/22 06:36:58;;;;;;;18.00;14.50;;;-3.60;99.90;;;;;;6248269;22;20152;-86
2021/12/22 06:39:23;;;;;;;18.67;12.77;;;-3.10;99.90;;;;;;6249391;22;20892;-86
2021/12/22 06:41:49;;;;;;;19.70;14.57;;;-3.70;99.90;;;;;;6248711;22;20176;-86
2021/12/22 06:44:15;;;;;;;26.07;15.43;;;-3.00;99.90;;;;;;6248600;22;20184;-86
2021/12/22 06:46:42;;;;;;;25.15;15.00;;;-2.70;99.90;;;;;;6248735;22;20157;-86
2021/12/22 06:49:09;;;;;;;20.38;14.30;;;-2.90;99.90;;;;;;6247959;22;20203;-86
2021/12/22 06:51:34;;;;;;;21.60;16.02;;;-3.60;99.90;;;;;;6275930;22;20192;-86
2021/12/22 06:54:00;;;;;;;24.50;14.17;;;-3.10;99.90;;;;;;6248434;22;20149;-85
2021/12/22 06:56:25;;;;;;;22.80;15.00;;;-2.70;99.90;;;;;;6248497;22;20160;-85
2021/12/22 06:58:51;;;;;;;21.50;15.47;;;-3.10;99.90;;;;;;6248589;22;20155;-86
2021/12/22 07:01:19;;;;;;;25.67;16.57;;;-3.00;99.90;;;;;;6248825;22;20725;-86
2021/12/22 07:03:45;;;;;;;18.85;14.05;;;-3.10;99.90;;;;;;6248955;22;20402;-85
2021/12/22 07:06:11;;;;;;;25.40;15.48;;;-3.60;99.90;;;;;;6248647;22;20568;-86
2021/12/22 07:08:37;;;;;;;18.37;13.70;;;-3.00;99.90;;;;;;6249475;22;20148;-86
2021/12/22 07:11:02;;;;;;;17.63;14.10;;;-3.00;99.90;;;;;;6247987;22;20483;-86
2021/12/22 07:13:30;;;;;;;21.30;15.00;;;-3.20;99.90;;;;;;6249047;22;20153;-86
2021/12/22 07:15:55;;;;;;;19.52;13.50;;;-2.90;99.90;;;;;;6250371;22;20156;-86
2021/12/22 07:18:21;;;;;;;19.60;14.90;;;-3.20;99.90;;;;;;6248813;22;20214;-87
2021/12/22 07:20:46;;;;;;;58.73;18.93;;;-2.80;99.90;;;;;;6253253;22;20176;-87
2021/12/22 07:23:12;;;;;;;27.77;16.10;;;-3.50;99.90;;;;;;6252395;22;20148;-86
2021/12/22 07:25:38;;;;;;;20.20;14.43;;;-2.60;99.90;;;;;;6249403;22;20213;-87
2021/12/22 07:28:04;;;;;;;22.50;15.43;;;-2.50;99.90;;;;;;6248748;22;20206;-87
2021/12/22 07:30:29;;;;;;;20.63;14.93;;;-3.00;99.90;;;;;;6260009;22;20418;-86
2021/12/22 07:32:55;;;;;;;20.73;15.60;;;-2.90;99.90;;;;;;6260512;22;20272;-87
2021/12/22 07:35:32;;;;;;;24.20;15.73;;;-3.00;99.90;;;;;;6248808;22;20919;-87
2021/12/22 07:38:24;;;;;;;21.25;15.25;;;-2.90;99.90;;;;;;6255391;22;20145;-87
2021/12/22 07:40:51;;;;;;;21.50;14.95;;;-2.80;99.90;;;;;;6248902;22;20188;-87
2021/12/22 07:43:17;;;;;;;22.80;16.20;;;-2.50;99.90;;;;;;6248492;22;20180;-87
2021/12/22 07:45:43;;;;;;;23.57;15.80;;;-2.70;99.90;;;;;;6248398;22;20177;-87
2021/12/22 07:48:08;;;;;;;23.97;15.93;;;-2.50;99.90;;;;;;6247751;22;20157;-87
2021/12/22 07:50:34;;;;;;;23.13;16.40;;;-2.70;99.90;;;;;;6248390;22;20893;-86
2021/12/22 07:52:59;;;;;;;22.60;15.90;;;-2.80;99.90;;;;;;6248977;22;20222;-86
2021/12/22 07:55:25;;;;;;;23.20;15.80;;;-3.10;99.90;;;;;;6254537;22;20183;-87
2021/12/22 07:57:51;;;;;;;22.77;16.27;;;-2.40;99.90;;;;;;6248031;22;20156;-86
2021/12/22 08:00:16;;;;;;;23.83;16.00;;;-2.60;99.90;;;;;;6249418;22;20264;-87
2021/12/22 08:02:42;;;;;;;22.50;15.27;;;-2.60;99.90;;;;;;6248852;22;20156;-87
2021/12/22 08:05:08;;;;;;;21.90;17.47;;;-2.40;99.90;;;;;;6289986;22;20247;-87
2021/12/22 08:07:34;;;;;;;24.77;15.60;;;-2.50;99.90;;;;;;6248479;22;20610;-87
2021/12/22 08:10:00;;;;;;;24.95;16.60;;;-2.50;99.90;;;;;;6248207;22;20391;-86
2021/12/22 08:12:26;;;;;;;23.25;16.42;;;-2.40;99.90;;;;;;6255903;22;20603;-87
2021/12/22 08:14:51;;;;;;;20.07;15.80;;;-2.40;99.90;;;;;;6247864;22;20160;-88
2021/12/22 08:17:17;;;;;;;20.40;15.07;;;-2.30;99.90;;;;;;6248691;22;20188;-87
2021/12/22 08:19:43;;;;;;;22.60;15.53;;;-2.10;99.90;;;;;;6248664;22;20160;-87
2021/12/22 08:22:09;;;;;;;26.17;15.70;;;-3.00;99.90;;;;;;6248188;22;20176;-87
2021/12/22 08:24:37;;;;;;;31.08;18.10;;;-2.50;99.90;;;;;;6248088;22;20196;-87
2021/12/22 08:27:03;;;;;;;25.88;16.15;;;-2.30;99.90;;;;;;6247496;22;20478;-87
2021/12/22 08:29:28;;;;;;;21.25;15.98;;;-2.60;99.90;;;;;;6248165;22;20159;-87
2021/12/22 08:31:54;;;;;;;22.97;15.80;;;-2.40;99.90;;;;;;6248224;22;20173;-87
2021/12/22 08:34:34;;;;;;;24.40;16.10;;;-2.50;99.90;;;;;;6247852;22;20156;-87
2021/12/22 08:39:44;;;;;;;23.55;16.25;;;-1.80;99.90;;;;;;6287516;22;20223;-87
2021/12/22 08:42:10;;;;;;;21.87;15.60;;;-2.20;99.90;;;;;;6249731;22;20263;-87
2021/12/22 08:44:36;;;;;;;25.17;18.10;;;-1.80;99.90;;;;;;6287126;22;20421;-87
2021/12/22 08:47:02;;;;;;;24.00;16.60;;;-2.30;99.90;;;;;;6247867;22;20474;-87
2021/12/22 08:49:29;;;;;;;26.38;18.27;;;-2.20;99.90;;;;;;6247797;22;20186;-87
2021/12/22 08:51:55;;;;;;;25.63;17.85;;;-2.30;99.90;;;;;;6246709;22;20226;-87
2021/12/22 08:54:28;;;;;;;26.30;17.00;;;-1.70;99.90;;;;;;5042089;28;20574;-51
2021/12/22 08:56:55;;;;;;;23.65;15.60;;;-2.10;99.90;;;;;;5029415;28;20604;-51
2021/12/22 08:59:21;;;;;;;24.05;17.23;;;-2.20;99.90;;;;;;5055417;28;20277;-51
2021/12/22 09:01:48;;;;;;;26.38;17.35;;;-2.10;99.90;;;;;;5067100;28;20217;-51
2021/12/22 09:04:15;;;;;;;24.75;17.45;;;-1.80;99.90;;;;;;5065954;28;20193;-51
2021/12/22 09:06:41;;;;;;;24.98;16.70;;;-2.00;99.90;;;;;;5047820;28;20191;-51
2021/12/22 09:09:08;;;;;;;25.07;17.57;;;-2.10;99.90;;;;;;5067182;28;20284;-51
2021/12/22 09:11:35;;;;;;;26.63;17.70;;;-2.40;99.90;;;;;;5048645;28;20442;-52
2021/12/22 09:14:03;;;;;;;30.55;17.80;;;-1.80;99.90;;;;;;5061923;28;20223;-51
2021/12/22 09:16:29;;;;;;;25.08;16.83;;;-1.90;99.90;;;;;;5057602;28;20214;-51
2021/12/22 09:18:56;;;;;;;24.95;16.65;;;-1.80;99.90;;;;;;5064614;28;20241;-51
2021/12/22 09:21:22;;;;;;;27.48;16.63;;;-1.10;99.90;;;;;;5041176;28;20181;-50
2021/12/22 09:23:48;;;;;;;20.58;14.65;;;-1.60;99.90;;;;;;5040192;28;20651;-50
2021/12/22 09:26:14;;;;;;;23.02;15.73;;;-1.20;99.90;;;;;;5060627;28;20238;-51
2021/12/22 09:28:39;;;;;;;22.27;17.80;;;-0.60;99.90;;;;;;5046773;28;20764;-51
2021/12/22 09:31:06;;;;;;;24.53;17.50;;;-0.70;99.90;;;;;;5066642;28;20818;-51
2021/12/22 09:33:32;;;;;;;23.02;15.35;;;-0.30;99.90;;;;;;5060815;28;20247;-50
2021/12/22 09:35:58;;;;;;;19.70;14.37;;;0.00;99.90;;;;;;5039386;28;20183;-51
2021/12/22 09:38:24;;;;;;;25.52;16.90;;;-0.20;99.90;;;;;;5064132;28;20516;-50
2021/12/22 09:40:50;;;;;;;23.43;17.13;;;0.10;99.90;;;;;;5053471;28;20589;-50
2021/12/22 09:43:16;;;;;;;24.30;17.55;;;0.60;99.90;;;;;;5045909;28;20189;-51
2021/12/22 09:45:47;;;;;;;24.90;17.30;;;-0.50;99.90;;;;;;5055217;28;20617;-52
2021/12/22 09:50:51;;;;;;;23.20;17.63;;;0.40;99.90;;;;;;5041212;28;20286;-51
2021/12/22 09:53:22;;;;;;;19.77;14.60;;;0.20;99.90;;;;;;5033123;28;20222;-50
2021/12/22 09:55:49;;;;;;;18.38;13.23;;;-0.50;99.90;;;;;;5060391;28;20189;-50
2021/12/22 09:58:16;;;;;;;26.63;14.63;;;-0.40;99.90;;;;;;5040821;28;20197;-51
2021/12/22 10:00:43;;;;;;;23.17;13.35;;;-0.20;99.90;;;;;;5066495;28;20239;-51
2021/12/22 10:03:10;;;;;;;18.73;13.35;;;0.50;99.90;;;;;;5044416;28;20185;-51
2021/12/22 10:05:37;;;;;;;22.67;14.20;;;1.40;99.90;;;;;;5045066;28;20181;-50
2021/12/22 10:08:16;;;;;;;19.88;13.30;;;1.80;99.90;;;;;;5052428;28;20640;-53
2021/12/22 10:10:46;;;;;;;16.40;12.60;;;2.30;99.90;;;;;;5052646;28;20300;-51
2021/12/22 10:13:20;;;;;;;16.80;12.02;;;2.30;98.80;;;;;;5033731;28;20201;-52
2021/12/22 10:15:47;;;;;;;17.15;12.63;;;1.70;98.30;;;;;;5048676;28;20178;-51
2021/12/22 10:18:18;;;;;;;15.50;11.50;;;2.60;98.90;;;;;;5039407;28;20209;-51
2021/12/22 10:20:47;;;;;;;18.88;13.85;;;2.70;98.40;;;;;;5034157;28;20210;-51
2021/12/22 10:23:27;;;;;;;16.90;12.32;;;3.40;96.70;;;;;;5046361;28;20183;-51
2021/12/22 10:25:59;;;;;;;14.10;11.27;;;3.50;95.00;;;;;;5051050;28;20198;-52
2021/12/22 10:28:29;;;;;;;17.15;14.27;;;4.00;94.80;;;;;;5046454;28;20205;-50
2021/12/22 10:31:01;;;;;;;16.13;11.90;;;4.30;93.50;;;;;;5052478;28;20272;-51
2021/12/22 10:33:32;;;;;;;14.65;11.27;;;4.00;93.10;;;;;;5052047;28;20210;-51
2021/12/22 10:36:08;;;;;;;17.00;12.63;;;4.50;93.00;;;;;;5018018;28;20517;-52
2021/12/22 10:38:34;;;;;;;14.60;11.02;;;4.40;93.30;;;;;;5024717;28;20673;-52
2021/12/22 10:41:08;;;;;;;13.00;10.93;;;4.70;92.50;;;;;;5049616;28;20193;-52
2021/12/22 10:43:41;;;;;;;13.88;12.38;;;5.60;91.70;;;;;;5040699;28;20269;-51
2021/12/22 10:46:07;;;;;;;15.23;12.73;;;6.20;90.30;;;;;;5044066;28;20564;-51
2021/12/22 10:51:29;;;;;;;15.73;12.90;;;6.20;85.90;;;;;;5033054;28;20555;-51
2021/12/22 10:53:56;;;;;;;13.13;11.43;;;6.10;86.80;;;;;;5046101;28;20300;-51
2021/12/22 10:56:46;;;;;;;14.32;11.70;;;6.20;85.10;;;;;;5043473;28;20237;-51
2021/12/22 10:59:13;;;;;;;15.38;11.82;;;6.40;84.90;;;;;;5044715;28;20221;-52
2021/12/22 11:01:53;;;;;;;14.95;12.05;;;6.10;84.80;;;;;;5051707;28;20177;-51
2021/12/22 11:04:25;;;;;;;14.10;11.90;;;6.20;84.20;;;;;;5051970;28;20193;-52
2021/12/22 11:06:53;;;;;;;14.50;11.63;;;5.70;84.20;;;;;;5028018;28;20198;-52
2021/12/22 11:09:21;;;;;;;12.88;10.73;;;5.90;85.00;;;;;;5019171;28;20213;-52
2021/12/22 11:11:50;;;;;;;16.30;12.68;;;5.20;87.20;;;;;;5023426;28;20197;-52
2021/12/22 11:14:33;;;;;;;14.98;11.50;;;5.30;87.70;;;;;;5051419;28;20218;-51
2021/12/22 11:17:13;;;;;;;14.27;11.10;;;4.70;89.50;;;;;;5039658;28;20655;-51
2021/12/22 11:19:47;;;;;;;14.10;11.27;;;4.80;89.50;;;;;;5046226;28;20201;-52
2021/12/22 11:22:16;;;;;;;16.65;13.02;;;4.40;90.80;;;;;;5032602;28;20182;-51
2021/12/22 11:24:48;;;;;;;15.50;13.18;;;3.20;90.80;;;;;;5051697;28;20193;-51
2021/12/22 11:27:17;;;;;;;18.00;13.10;;;3.90;91.70;;;;;;5045463;28;20197;-52
2021/12/22 11:29:46;;;;;;;14.13;11.75;;;3.80;92.10;;;;;;5036532;28;20310;-52
2021/12/22 11:32:13;;;;;;;15.43;11.85;;;3.60;92.30;;;;;;5031096;28;20249;-52
2021/12/22 11:34:43;;;;;;;13.93;11.90;;;4.40;92.20;;;;;;5024678;28;20629;-52
2021/12/22 11:37:11;;;;;;;15.50;12.43;;;4.30;91.90;;;;;;5039761;28;20248;-52
2021/12/22 11:39:36;;;;;;;15.45;12.30;;;3.20;92.10;;;;;;5050990;28;20620;-51
2021/12/22 11:42:08;;;;;;;14.53;11.70;;;3.80;92.80;;;;;;5036909;28;20190;-51
2021/12/22 11:44:35;;;;;;;22.23;15.68;;;4.00;93.10;;;;;;5023912;28;20948;-52
2021/12/22 11:47:07;;;;;;;15.43;12.07;;;3.90;92.60;;;;;;5050585;28;20197;-52
2021/12/22 11:49:37;;;;;;;14.90;11.88;;;4.10;92.60;;;;;;5041616;28;20206;-51
2021/12/22 11:52:36;;;;;;;17.30;13.40;;;4.00;92.30;;;;;;5042898;28;20189;-52
2021/12/22 11:55:25;;;;;;;16.27;12.60;;;3.50;92.70;;;;;;5026389;28;20712;-51
2021/12/22 11:58:12;;;;;;;14.07;12.63;;;3.60;93.00;;;;;;5026838;28;20704;-51
2021/12/22 12:00:46;;;;;;;20.02;12.60;;;4.00;93.00;;;;;;5042604;28;20214;-52
2021/12/22 12:03:22;;;;;;;16.95;13.27;;;4.30;92.80;;;;;;5049307;28;20187;-52
2021/12/22 12:06:01;;;;;;;17.25;13.48;;;4.10;92.60;;;;;;5044734;28;20697;-52
2021/12/22 12:08:37;;;;;;;18.58;13.50;;;4.00;92.20;;;;;;5035998;28;20255;-51
2021/12/22 12:11:08;;;;;;;16.27;12.88;;;4.20;92.50;;;;;;5046259;28;20629;-51
2021/12/22 12:13:51;;;;;;;15.68;11.80;;;3.80;92.10;;;;;;5039247;28;20209;-52
2021/12/22 12:22:04;;;;;;;15.55;12.25;;;4.30;92.00;;;;;;5031707;28;20255;-51
2021/12/22 12:24:44;;;;;;;16.15;12.52;;;3.80;92.20;;;;;;5050064;28;20202;-52
2021/12/22 12:27:31;;;;;;;15.60;12.18;;;4.10;92.30;;;;;;5040146;28;20204;-52
2021/12/22 12:30:02;;;;;;;16.05;12.93;;;4.30;92.40;;;;;;5049844;28;20297;-52
2021/12/22 12:32:40;;;;;;;17.13;12.57;;;4.10;92.40;;;;;;5050232;28;20581;-51
2021/12/22 12:35:18;;;;;;;17.13;12.05;;;3.80;92.20;;;;;;5039742;28;20238;-52
2021/12/22 12:38:05;;;;;;;20.05;13.25;;;4.10;92.30;;;;;;5049944;28;20179;-52
2021/12/22 12:41:02;;;;;;;17.85;13.10;;;4.00;92.90;;;;;;5050420;28;20186;-52
2021/12/22 12:43:51;;;;;;;17.20;11.90;;;3.70;93.40;;;;;;5024498;28;20189;-52
2021/12/22 12:46:35;;;;;;;15.75;13.15;;;3.00;93.00;;;;;;5049846;28;20308;-51
2021/12/22 12:49:03;;;;;;;16.55;11.60;;;3.50;93.20;;;;;;5049668;28;20615;-52
2021/12/22 12:51:37;;;;;;;20.17;12.63;;;3.50;93.80;;;;;;5016703;28;20628;-52
2021/12/22 12:54:05;;;;;;;18.45;13.48;;;3.80;93.90;;;;;;5037031;28;20222;-51
2021/12/22 12:56:57;;;;;;;19.50;13.77;;;3.50;94.10;;;;;;5038744;28;20213;-52
2021/12/22 12:59:39;;;;;;;18.60;12.90;;;3.60;94.30;;;;;;5031255;28;20198;-53
2021/12/22 13:02:08;;;;;;;17.42;13.20;;;3.30;94.40;;;;;;5049823;28;20182;-51
2021/12/22 13:04:41;;;;;;;17.48;12.20;;;3.20;94.10;;;;;;5043385;28;20343;-50